Weather forecast for Chervonyi Kut (Червоный Кут)

Ukraine, 146 m
N47.393, E30.455


Sounding

Red line — air temperature ˚C.
Blue line — thermal bubble temperature ˚C.
Green line — dew point temperature ˚C.
Wind speed is in meters per second.

Table forecast

GFS 0.25˚ model

temp. wind gust humid. clouds prec. press. hpbl
Sun19 00:00 25 103.0 ese 3 4 47 98 0.0 1017 102
03:00 23 88.0 e 3 3 54 94 0.3 1018 55
06:00 21 69.0 ene 2 2 57 98 0.0 1018 25
09:00 26 90.0 e 3 4 45 77 0.0 1019 360
12:00 30 83.0 e 4 4 32 2 0.0 1018 1296
15:00 32 79.0 e 3 2 27 0 0.0 1017 2355
18:00 31 58.0 ene 3 2 27 2 0.0 1016 2689
21:00 26 88.0 e 3 4 34 17 0.0 1017 75
 
Mon20 00:00 23 119.0 ese 3 4 33 80 0.0 1017 93
03:00 21 122.0 ese 2 2 31 90 0.0 1017 23
06:00 20 92.0 e 2 2 36 100 0.0 1017 23
09:00 25 124.0 se 3 4 43 72 0.0 1018 360
12:00 29 123.0 ese 3 3 28 1 0.0 1017 1567
15:00 31 107.0 ese 3 2 24 1 0.0 1016 2343
18:00 31 90.0 e 2 2 23 0 0.0 1015 2472
21:00 25 118.0 ese 3 4 29 0 0.0 1015 51
 
Tue21 00:00 22 185.0 s 2 3 32 0 0.0 1015 23
03:00 20 244.0 wsw 1 1 36 0 0.0 1016 23
06:00 19 277.0 w 1 1 38 0 0.0 1015 23
09:00 26 252.0 wsw 2 2 29 0 0.0 1016 297
12:00 30 252.0 wsw 3 3 28 0 0.0 1016 1634
15:00 31 293.0 wnw 3 4 34 19 0.0 1014 2363
18:00 31 313.0 nw 4 5 37 45 0.0 1014 2370
21:00 26 341.0 nnw 3 4 52 23 0.0 1015 43
 
Wed22 00:00 23 2.0 n 5 11 66 0 0.0 1016 324
03:00 21 1.0 n 4 8 77 0 0.0 1017 283
06:00 19 16.0 nne 5 10 76 0 0.0 1018 379
09:00 22 25.0 nne 6 9 56 0 0.0 1020 635
12:00 26 19.0 nne 6 7 39 0 0.0 1020 1334
15:00 27 22.0 nne 6 6 30 0 0.0 1020 1805
18:00 26 28.0 nne 6 7 35 0 0.0 1020 1793
21:00 20 26.0 nne 4 8 48 0 0.0 1021 176
 
Thu23 00:00 18 34.0 ne 4 8 54 0 0.0 1022 181
03:00 16 37.0 ne 4 9 60 0 0.0 1022 209
06:00 14 42.0 ne 4 6 64 0 0.0 1022 141
09:00 20 65.0 ene 5 7 46 0 0.0 1022 522
12:00 25 66.0 ene 4 5 30 0 0.0 1021 1552
15:00 27 69.0 ene 4 5 23 0 0.0 1020 2018
18:00 27 68.0 ene 4 5 24 0 0.0 1018 2041
21:00 21 50.0 ne 4 5 34 0 0.0 1019 90
 

0.029 s